createdAt,value
2023-03-21T00:00:17.878Z,16.52
2023-03-21T00:02:44.397Z,16.17
2023-03-21T00:05:15.893Z,16.42
2023-03-21T00:07:42.767Z,16.58
2023-03-21T00:10:16.609Z,17.70
2023-03-21T00:12:44.749Z,15.52
2023-03-21T00:15:12.918Z,16.40
2023-03-21T00:17:39.821Z,16.13
2023-03-21T00:20:15.183Z,17.17
2023-03-21T00:22:42.216Z,16.42
2023-03-21T00:25:10.514Z,16.13
2023-03-21T00:27:56.816Z,15.65
2023-03-21T00:30:24.118Z,15.95
2023-03-21T00:32:56.553Z,15.73
2023-03-21T00:35:57.364Z,15.15
2023-03-21T00:38:10.852Z,17.33
2023-03-21T00:40:43.641Z,15.63
2023-03-21T00:43:17.628Z,14.82
2023-03-21T00:45:45.417Z,17.35
2023-03-21T00:48:12.308Z,14.90
2023-03-21T00:50:42.129Z,15.02
2023-03-21T00:53:08.846Z,15.05
2023-03-21T00:55:35.633Z,15.02
2023-03-21T00:58:02.777Z,16.48
2023-03-21T01:00:30.437Z,15.18
2023-03-21T01:03:04.515Z,16.25
2023-03-21T01:05:58.897Z,16.80
2023-03-21T01:08:31.123Z,16.42
2023-03-21T01:11:08.426Z,18.20
2023-03-21T01:13:38.412Z,20.05
2023-03-21T01:16:08.982Z,18.83
2023-03-21T01:18:36.796Z,19.45
2023-03-21T01:21:08.610Z,22.00
2023-03-21T01:23:35.435Z,19.33
2023-03-21T01:26:02.203Z,21.50
2023-03-21T01:28:29.934Z,22.92
2023-03-21T01:30:57.028Z,23.27
2023-03-21T01:33:23.973Z,23.85
2023-03-21T01:35:57.624Z,24.83
2023-03-21T01:38:33.246Z,26.13
2023-03-21T01:41:06.145Z,25.58
2023-03-21T01:43:36.922Z,26.65
2023-03-21T01:46:21.345Z,28.65
2023-03-21T01:49:15.434Z,27.42
2023-03-21T01:51:46.623Z,28.92
2023-03-21T01:54:24.692Z,29.83
2023-03-21T01:56:53.919Z,30.90
2023-03-21T01:59:26.236Z,29.90
2023-03-21T02:02:14.186Z,29.33
2023-03-21T02:04:55.961Z,29.55
2023-03-21T02:07:31.706Z,31.58
2023-03-21T02:10:12.500Z,30.02
2023-03-21T02:12:42.841Z,31.52
2023-03-21T02:15:11.280Z,29.80
2023-03-21T02:18:01.952Z,29.80
2023-03-21T02:20:55.323Z,31.40
2023-03-21T02:23:56.942Z,33.28
2023-03-21T02:27:03.926Z,30.85
2023-03-21T02:30:26.505Z,31.50
2023-03-21T02:33:28.834Z,32.90
2023-03-21T02:36:26.195Z,30.50
2023-03-21T02:39:13.718Z,29.80
2023-03-21T02:42:06.262Z,31.08
2023-03-21T02:44:45.230Z,32.85
2023-03-21T02:47:22.662Z,31.27
2023-03-21T02:49:58.176Z,30.58
2023-03-21T02:52:38.750Z,29.25
2023-03-21T02:55:13.931Z,29.65
2023-03-21T02:57:48.601Z,31.38
2023-03-21T03:00:29.635Z,30.90
2023-03-21T03:03:08.838Z,32.42
2023-03-21T03:05:46.002Z,29.27
2023-03-21T03:08:43.057Z,31.20
2023-03-21T03:11:29.040Z,30.20
2023-03-21T03:14:32.478Z,31.35
2023-03-21T03:17:39.484Z,30.67
2023-03-21T03:20:23.254Z,34.97
2023-03-21T03:22:58.674Z,31.98
2023-03-21T03:25:42.551Z,31.40
2023-03-21T03:28:17.148Z,35.17
2023-03-21T03:30:57.437Z,30.35
2023-03-21T03:33:37.100Z,32.38
2023-03-21T03:36:06.848Z,32.20
2023-03-21T03:38:36.841Z,31.98
2023-03-21T03:41:11.586Z,31.85
2023-03-21T03:43:48.158Z,30.83
2023-03-21T03:46:19.615Z,31.00
2023-03-21T03:51:22.622Z,32.75
2023-03-21T03:54:14.395Z,32.53
2023-03-21T03:56:42.142Z,29.13
2023-03-21T03:59:09.210Z,31.30
2023-03-21T04:01:54.642Z,29.02
2023-03-21T04:04:22.911Z,31.52
2023-03-21T04:06:53.794Z,28.92
2023-03-21T04:09:31.511Z,30.77
2023-03-21T04:12:07.602Z,28.88
2023-03-21T04:14:44.075Z,30.05
2023-03-21T04:17:11.742Z,30.50
2023-03-21T04:19:38.286Z,30.35
2023-03-21T04:22:04.832Z,29.85
2023-03-21T04:24:33.855Z,33.92
2023-03-21T04:27:00.810Z,33.55
2023-03-21T04:29:38.586Z,30.35
2023-03-21T04:32:24.738Z,36.42
2023-03-21T04:35:00.304Z,31.40
2023-03-21T04:37:27.916Z,31.00
2023-03-21T04:39:55.186Z,30.90
2023-03-21T04:42:21.905Z,31.38
2023-03-21T04:44:49.206Z,31.25
2023-03-21T04:47:16.254Z,31.85
2023-03-21T04:49:43.513Z,30.33
2023-03-21T04:52:11.315Z,33.08
2023-03-21T04:54:37.841Z,35.00
2023-03-21T04:57:04.802Z,30.88
2023-03-21T04:59:31.729Z,33.08
2023-03-21T05:01:58.675Z,31.73
2023-03-21T05:04:26.763Z,32.33
2023-03-21T05:06:53.784Z,31.50
2023-03-21T05:09:22.245Z,30.40
2023-03-21T05:11:49.685Z,33.17
2023-03-21T05:14:21.023Z,33.95
2023-03-21T05:16:54.344Z,34.63
2023-03-21T05:19:34.879Z,35.58
2023-03-21T05:22:05.432Z,34.50
2023-03-21T05:24:32.883Z,34.42
2023-03-21T05:27:02.758Z,37.65
2023-03-21T05:29:33.744Z,34.22
2023-03-21T05:32:02.893Z,35.95
2023-03-21T05:34:29.462Z,32.80
2023-03-21T05:36:56.262Z,34.75
2023-03-21T05:39:25.571Z,34.67
2023-03-21T05:42:00.785Z,37.22
2023-03-21T05:44:27.572Z,35.00
2023-03-21T05:46:54.451Z,39.60
2023-03-21T05:49:26.973Z,39.80
2023-03-21T05:51:57.708Z,34.72
2023-03-21T05:54:24.936Z,33.10
2023-03-21T05:56:51.649Z,37.08
2023-03-21T05:59:37.956Z,34.33
2023-03-21T06:02:05.416Z,39.50
2023-03-21T06:04:31.918Z,36.35
2023-03-21T06:06:58.463Z,33.05
2023-03-21T06:09:26.002Z,35.72
2023-03-21T06:11:57.276Z,37.85
2023-03-21T06:14:31.242Z,37.13
2023-03-21T06:17:16.597Z,35.50
2023-03-21T06:19:48.610Z,35.53
2023-03-21T06:22:26.103Z,35.75
2023-03-21T06:24:52.740Z,36.45
2023-03-21T06:27:19.312Z,37.20
2023-03-21T06:29:50.638Z,35.03
2023-03-21T06:32:18.008Z,35.05
2023-03-21T06:34:45.338Z,35.67
2023-03-21T06:37:14.497Z,36.63
2023-03-21T06:39:41.414Z,37.83
2023-03-21T06:42:09.829Z,39.40
2023-03-21T06:44:36.711Z,39.58
2023-03-21T06:47:07.076Z,40.90
2023-03-21T06:49:33.736Z,44.33
2023-03-21T06:52:07.109Z,43.33
2023-03-21T06:54:34.032Z,44.67
2023-03-21T06:57:07.710Z,42.35
2023-03-21T06:59:36.170Z,42.70
2023-03-21T07:02:10.816Z,42.20
2023-03-21T07:04:42.238Z,49.10
2023-03-21T07:07:14.367Z,46.20
2023-03-21T07:09:41.130Z,39.17
2023-03-21T07:12:08.268Z,41.63
2023-03-21T07:14:49.263Z,41.42
2023-03-21T07:17:15.987Z,41.63
2023-03-21T07:19:44.756Z,45.28
2023-03-21T07:22:11.584Z,42.85
2023-03-21T07:24:38.057Z,43.17
2023-03-21T07:27:04.686Z,39.95
2023-03-21T07:29:31.305Z,39.80
2023-03-21T07:31:57.867Z,42.72
2023-03-21T07:34:24.487Z,41.40
2023-03-21T07:36:50.996Z,43.05
2023-03-21T07:39:17.723Z,41.83
2023-03-21T07:41:44.354Z,39.78
2023-03-21T07:44:23.120Z,44.50
2023-03-21T07:46:57.184Z,38.30
2023-03-21T07:49:24.263Z,40.20
2023-03-21T07:51:51.301Z,41.63
2023-03-21T07:54:21.012Z,43.42
2023-03-21T08:00:38.315Z,37.40
2023-03-21T08:03:05.390Z,34.80
2023-03-21T08:05:36.790Z,40.35
2023-03-21T08:08:40.768Z,36.08
2023-03-21T08:11:12.042Z,38.03
2023-03-21T08:13:38.751Z,37.35
2023-03-21T08:16:15.627Z,35.60
2023-03-21T08:18:45.480Z,41.00
2023-03-21T08:21:11.955Z,36.85
2023-03-21T08:23:50.560Z,40.67
2023-03-21T08:26:26.543Z,39.75
2023-03-21T08:28:59.877Z,37.53
2023-03-21T08:31:26.439Z,37.13
2023-03-21T08:33:54.759Z,38.17
2023-03-21T08:36:22.977Z,36.63
2023-03-21T08:38:53.976Z,37.35
2023-03-21T08:41:22.162Z,37.75
2023-03-21T08:43:49.099Z,37.65
2023-03-21T08:46:15.820Z,36.88
2023-03-21T08:48:42.816Z,36.75
2023-03-21T08:51:09.361Z,43.00
2023-03-21T08:53:35.972Z,37.33
2023-03-21T08:56:02.523Z,34.50
2023-03-21T08:58:29.083Z,38.10
2023-03-21T09:00:56.507Z,35.92
2023-03-21T09:03:23.101Z,35.47
2023-03-21T09:05:50.097Z,37.33
2023-03-21T09:08:16.852Z,38.13
2023-03-21T09:10:43.321Z,34.15
2023-03-21T09:13:09.903Z,38.10
2023-03-21T09:15:36.849Z,36.28
2023-03-21T09:18:13.096Z,36.88
2023-03-21T09:20:40.495Z,35.83
2023-03-21T09:23:07.469Z,35.17
2023-03-21T09:25:34.029Z,32.42
2023-03-21T09:28:01.014Z,35.03
2023-03-21T09:30:28.289Z,35.42
2023-03-21T09:32:55.830Z,33.30
2023-03-21T09:35:24.300Z,34.33
2023-03-21T09:37:50.978Z,35.03
2023-03-21T09:40:42.006Z,33.75
2023-03-21T09:43:38.839Z,31.23
2023-03-21T09:46:19.526Z,30.42
2023-03-21T09:48:58.457Z,32.97
2023-03-21T09:51:28.863Z,29.80
2023-03-21T09:53:57.253Z,30.52
2023-03-21T09:56:26.134Z,30.92
2023-03-21T09:58:56.244Z,30.67
2023-03-21T10:01:32.961Z,30.75
2023-03-21T10:04:06.339Z,29.55
2023-03-21T10:06:39.181Z,28.95
2023-03-21T10:09:11.304Z,31.17
2023-03-21T10:11:47.849Z,30.63
2023-03-21T10:14:19.878Z,31.13
2023-03-21T10:16:52.751Z,31.90
2023-03-21T10:19:20.275Z,28.65
2023-03-21T10:22:00.646Z,30.02
2023-03-21T10:24:28.778Z,30.23
2023-03-21T10:26:56.069Z,27.85
2023-03-21T10:29:29.293Z,27.65
2023-03-21T10:31:56.436Z,30.95
2023-03-21T10:34:37.058Z,26.55
2023-03-21T10:37:05.359Z,26.20
2023-03-21T10:39:38.128Z,25.35
2023-03-21T10:42:05.004Z,25.67
2023-03-21T10:44:33.908Z,26.85
2023-03-21T10:47:06.625Z,26.60
2023-03-21T10:49:40.655Z,23.52
2023-03-21T10:52:21.825Z,25.02
2023-03-21T10:54:48.765Z,27.23
2023-03-21T10:57:22.152Z,23.48
2023-03-21T10:59:58.091Z,23.75
2023-03-21T11:02:28.785Z,23.00
2023-03-21T11:04:55.965Z,23.20
2023-03-21T11:07:25.329Z,23.35
2023-03-21T11:09:57.788Z,21.65
2023-03-21T11:12:37.144Z,22.75
2023-03-21T11:15:29.067Z,22.55
2023-03-21T11:17:55.742Z,20.95
2023-03-21T11:20:22.941Z,21.35
2023-03-21T11:22:50.257Z,23.85
2023-03-21T11:25:31.781Z,21.60
2023-03-21T11:27:59.293Z,21.02
2023-03-21T11:30:27.518Z,19.98
2023-03-21T11:32:59.049Z,21.80
2023-03-21T11:35:28.827Z,20.10
2023-03-21T11:37:56.499Z,18.90
2023-03-21T11:40:30.772Z,18.95
2023-03-21T11:43:19.075Z,16.73
2023-03-21T11:46:01.300Z,17.83
2023-03-21T11:48:28.781Z,17.80
2023-03-21T11:51:01.281Z,18.98
2023-03-21T11:53:39.537Z,15.63
2023-03-21T11:56:13.661Z,18.95
2023-03-21T11:58:58.821Z,14.93
2023-03-21T12:01:35.161Z,16.25
2023-03-21T12:04:18.456Z,16.33
2023-03-21T12:06:57.389Z,14.45
2023-03-21T12:09:29.592Z,15.20
2023-03-21T12:12:30.020Z,15.98
2023-03-21T12:15:30.191Z,14.15
2023-03-21T12:18:14.127Z,14.88
2023-03-21T12:21:04.923Z,15.30
2023-03-21T12:23:37.576Z,14.52
2023-03-21T12:26:17.144Z,17.08
2023-03-21T12:29:18.378Z,13.70
2023-03-21T12:31:55.492Z,15.85
2023-03-21T12:34:57.363Z,14.55
2023-03-21T12:37:58.082Z,15.13
2023-03-21T12:41:03.038Z,12.82
2023-03-21T12:43:41.041Z,15.52
2023-03-21T12:46:34.052Z,13.90
2023-03-21T12:49:03.995Z,13.75
2023-03-21T12:51:33.964Z,12.82
2023-03-21T12:54:28.506Z,13.05
2023-03-21T12:57:01.717Z,14.73
2023-03-21T12:59:39.489Z,13.25
2023-03-21T13:02:17.288Z,14.00
2023-03-21T13:05:06.330Z,12.70
2023-03-21T13:07:37.698Z,13.05
2023-03-21T13:10:13.109Z,14.32
2023-03-21T13:12:49.308Z,14.70
2023-03-21T13:15:48.108Z,13.32
2023-03-21T13:18:25.933Z,14.20
2023-03-21T13:20:55.882Z,14.15
2023-03-21T13:23:23.596Z,14.18
2023-03-21T13:25:52.028Z,12.90
2023-03-21T13:28:18.420Z,14.35
2023-03-21T13:30:45.699Z,13.60
2023-03-21T13:33:15.109Z,12.27
2023-03-21T13:35:44.308Z,11.82
2023-03-21T13:38:26.724Z,12.63
2023-03-21T13:40:58.980Z,13.35
2023-03-21T13:43:40.691Z,13.60
2023-03-21T13:46:26.629Z,12.00
2023-03-21T13:48:58.786Z,10.98
2023-03-21T13:51:41.466Z,10.85
2023-03-21T13:54:07.870Z,10.05
2023-03-21T13:56:52.381Z,10.63
2023-03-21T13:59:35.778Z,11.45
2023-03-21T14:02:22.581Z,11.05
2023-03-21T14:05:04.889Z,11.40
2023-03-21T14:07:34.909Z,10.55
2023-03-21T14:10:06.150Z,10.73
2023-03-21T14:12:41.210Z,13.77
2023-03-21T14:15:17.358Z,10.80
2023-03-21T14:17:54.808Z,11.73
2023-03-21T14:20:22.682Z,10.60
2023-03-21T14:22:49.853Z,10.27
2023-03-21T14:25:18.937Z,11.20
2023-03-21T14:27:56.898Z,10.57
2023-03-21T14:30:28.474Z,11.00
2023-03-21T14:33:00.031Z,10.18
2023-03-21T14:35:31.237Z,10.30
2023-03-21T14:38:01.130Z,10.20
2023-03-21T14:40:28.867Z,10.52
2023-03-21T14:42:55.925Z,12.20
2023-03-21T14:45:25.338Z,12.00
2023-03-21T14:48:14.976Z,10.90
2023-03-21T14:50:51.979Z,12.15
2023-03-21T14:53:29.500Z,11.95
2023-03-21T14:56:02.123Z,9.70
2023-03-21T14:58:32.254Z,9.95
2023-03-21T15:01:04.215Z,11.20
2023-03-21T15:03:31.296Z,14.63
2023-03-21T15:05:59.100Z,11.52
2023-03-21T15:08:28.328Z,12.27
2023-03-21T15:11:07.310Z,10.57
2023-03-21T15:13:50.202Z,10.07
2023-03-21T15:16:17.433Z,10.77
2023-03-21T15:18:44.551Z,10.40
2023-03-21T15:21:16.549Z,10.18
2023-03-21T15:23:45.188Z,11.30
2023-03-21T15:26:20.522Z,12.30
2023-03-21T15:28:49.667Z,11.30
2023-03-21T15:31:30.407Z,9.35
2023-03-21T15:33:57.255Z,13.05
2023-03-21T15:36:27.670Z,11.63
2023-03-21T15:38:54.990Z,11.50
2023-03-21T15:41:21.533Z,11.93
2023-03-21T15:43:54.621Z,9.60
2023-03-21T15:46:42.346Z,10.00
2023-03-21T15:49:14.862Z,13.60
2023-03-21T15:51:43.445Z,11.10
2023-03-21T15:54:15.055Z,10.27
2023-03-21T15:56:47.996Z,11.10
2023-03-21T15:59:18.128Z,11.40
2023-03-21T16:01:48.583Z,10.23
2023-03-21T16:04:18.288Z,11.07
2023-03-21T16:06:54.909Z,12.30
2023-03-21T16:09:24.453Z,14.40
2023-03-21T16:11:56.241Z,13.25
2023-03-21T16:14:24.130Z,12.18
2023-03-21T16:16:50.987Z,13.45
2023-03-21T16:19:17.806Z,12.55
2023-03-21T16:21:44.563Z,13.38
2023-03-21T16:24:13.563Z,13.57
2023-03-21T16:26:51.034Z,14.32
2023-03-21T16:29:18.970Z,13.60
2023-03-21T16:31:47.374Z,14.27
2023-03-21T16:34:14.450Z,13.23
2023-03-21T16:36:41.774Z,16.10
2023-03-21T16:39:20.552Z,14.70
2023-03-21T16:41:47.706Z,15.98
2023-03-21T16:44:14.732Z,15.38
2023-03-21T16:46:54.443Z,17.13
2023-03-21T16:49:30.973Z,16.27
2023-03-21T16:51:57.505Z,18.90
2023-03-21T16:54:24.318Z,17.08
2023-03-21T16:56:55.495Z,18.33
2023-03-21T16:59:23.338Z,17.55
2023-03-21T17:01:50.129Z,18.98
2023-03-21T17:04:18.410Z,18.98
2023-03-21T17:06:53.069Z,20.35
2023-03-21T17:09:22.106Z,18.50
2023-03-21T17:11:49.447Z,19.98
2023-03-21T17:14:17.977Z,20.38
2023-03-21T17:16:45.796Z,22.38
2023-03-21T17:19:17.886Z,20.15
2023-03-21T17:21:45.031Z,20.27
2023-03-21T17:24:11.776Z,22.88
2023-03-21T17:26:38.533Z,21.08
2023-03-21T17:29:05.339Z,19.52
2023-03-21T17:31:34.519Z,20.23
2023-03-21T17:34:03.490Z,20.88
2023-03-21T17:36:34.565Z,20.13
2023-03-21T17:39:01.715Z,19.83
2023-03-21T17:41:28.272Z,21.60
2023-03-21T17:43:55.877Z,22.27
2023-03-21T17:46:25.033Z,22.25
2023-03-21T17:48:51.912Z,20.52
2023-03-21T17:51:18.882Z,22.33
2023-03-21T17:53:48.270Z,21.73
2023-03-21T17:56:26.422Z,21.17
2023-03-21T17:58:55.927Z,20.70
2023-03-21T18:01:23.329Z,21.13
2023-03-21T18:03:50.717Z,21.20
2023-03-21T18:06:19.818Z,22.80
2023-03-21T18:08:47.394Z,21.27
2023-03-21T18:11:15.037Z,22.25
2023-03-21T18:13:43.135Z,20.88
2023-03-21T18:16:18.360Z,20.77
2023-03-21T18:18:46.472Z,20.52
2023-03-21T18:21:14.468Z,20.55
2023-03-21T18:23:41.170Z,21.83
2023-03-21T18:26:09.785Z,21.23
2023-03-21T18:28:39.599Z,21.02
2023-03-21T18:31:17.966Z,21.53
2023-03-21T18:33:48.107Z,21.90
2023-03-21T18:36:24.511Z,22.10
2023-03-21T18:38:52.279Z,22.00
2023-03-21T18:41:19.815Z,20.92
2023-03-21T18:44:02.672Z,21.70
2023-03-21T18:46:33.258Z,21.80
2023-03-21T18:49:13.125Z,21.00
2023-03-21T18:51:48.008Z,21.88
2023-03-21T18:54:15.596Z,22.00
2023-03-21T18:59:34.540Z,22.17
2023-03-21T19:02:02.073Z,22.60
2023-03-21T19:04:30.410Z,22.83
2023-03-21T19:06:57.776Z,22.90
2023-03-21T19:09:29.482Z,23.70
2023-03-21T19:11:58.615Z,22.98
2023-03-21T19:14:25.508Z,25.90
2023-03-21T19:19:39.758Z,23.95
2023-03-21T19:22:06.377Z,22.23
2023-03-21T19:24:33.258Z,23.27
2023-03-21T19:26:59.895Z,23.50
2023-03-21T19:29:26.587Z,24.92
2023-03-21T19:31:53.399Z,23.77
2023-03-21T19:34:20.827Z,24.70
2023-03-21T19:36:51.419Z,25.55
2023-03-21T19:39:21.972Z,27.60
2023-03-21T19:41:48.860Z,27.17
2023-03-21T19:44:15.491Z,29.08
2023-03-21T19:46:42.063Z,27.25
2023-03-21T19:49:08.579Z,26.13
2023-03-21T19:51:35.763Z,28.23
2023-03-21T19:54:05.035Z,26.20
2023-03-21T19:56:32.003Z,27.50
2023-03-21T19:58:59.101Z,26.45
2023-03-21T20:01:26.311Z,29.92
2023-03-21T20:03:53.343Z,28.40
2023-03-21T20:06:22.197Z,27.10
2023-03-21T20:11:35.462Z,30.42
2023-03-21T20:14:03.242Z,32.22
2023-03-21T20:16:34.929Z,31.08
2023-03-21T20:19:03.012Z,28.08
2023-03-21T20:21:48.208Z,27.58
2023-03-21T20:24:16.828Z,26.80
2023-03-21T20:26:45.229Z,28.25
2023-03-21T20:30:00.195Z,27.77
2023-03-21T20:31:58.353Z,27.90
2023-03-21T20:34:24.904Z,27.17
2023-03-21T20:36:51.679Z,30.55
2023-03-21T20:39:18.264Z,32.15
2023-03-21T20:41:44.818Z,30.50
2023-03-21T20:44:42.252Z,32.85
2023-03-21T20:46:59.946Z,31.55
2023-03-21T20:49:26.646Z,30.38
2023-03-21T20:54:42.278Z,34.90
2023-03-21T20:57:09.313Z,31.52
2023-03-21T20:59:35.923Z,32.10
2023-03-21T21:02:03.177Z,35.10
2023-03-21T21:04:48.127Z,31.77
2023-03-21T21:07:21.271Z,33.53
2023-03-21T21:09:48.735Z,34.43
2023-03-21T21:12:16.422Z,34.80
2023-03-21T21:14:43.712Z,36.20
2023-03-21T21:17:28.398Z,34.33
2023-03-21T21:19:56.894Z,34.25
2023-03-21T21:22:23.617Z,35.78
2023-03-21T21:24:50.139Z,37.10
2023-03-21T21:27:16.874Z,34.35
2023-03-21T21:29:43.666Z,36.78
2023-03-21T21:32:11.185Z,38.70
2023-03-21T21:34:37.966Z,38.45
2023-03-21T21:37:05.092Z,38.38
2023-03-21T21:39:37.761Z,40.63
2023-03-21T21:42:05.225Z,38.60
2023-03-21T21:44:31.978Z,39.65
2023-03-21T21:46:58.593Z,38.25
2023-03-21T21:49:25.293Z,38.28
2023-03-21T21:51:51.802Z,41.15
2023-03-21T21:54:18.532Z,40.83
2023-03-21T21:56:48.552Z,38.63
2023-03-21T21:59:18.402Z,39.80
2023-03-21T22:01:46.664Z,43.08
2023-03-21T22:04:14.494Z,39.30
2023-03-21T22:06:42.247Z,38.22
2023-03-21T22:09:09.418Z,37.95
2023-03-21T22:11:36.223Z,45.90
2023-03-21T22:14:03.187Z,41.83
2023-03-21T22:16:29.788Z,37.20
2023-03-21T22:18:56.334Z,36.97
2023-03-21T22:21:23.016Z,35.47
2023-03-21T22:23:49.508Z,36.97
2023-03-21T22:26:16.314Z,40.08
2023-03-21T22:28:43.596Z,39.00
2023-03-21T22:31:13.163Z,40.83
2023-03-21T22:33:39.773Z,39.85
2023-03-21T22:36:06.644Z,40.90
2023-03-21T22:38:34.617Z,35.42
2023-03-21T22:41:02.514Z,35.35
2023-03-21T22:43:29.649Z,36.05
2023-03-21T22:45:56.572Z,41.58
2023-03-21T22:48:23.204Z,33.03
2023-03-21T22:50:49.828Z,31.13
2023-03-21T22:53:16.471Z,39.55
2023-03-21T22:55:42.995Z,34.88
2023-03-21T22:58:09.509Z,33.55
2023-03-21T23:00:36.003Z,36.15
2023-03-21T23:03:02.509Z,36.40
2023-03-21T23:05:29.042Z,31.58
2023-03-21T23:07:55.622Z,29.42
2023-03-21T23:10:22.413Z,35.38
2023-03-21T23:12:49.471Z,33.17
2023-03-21T23:15:16.025Z,31.80
2023-03-21T23:17:44.202Z,37.58
2023-03-21T23:20:11.005Z,31.58
2023-03-21T23:22:37.617Z,34.05
2023-03-21T23:25:04.751Z,31.25
2023-03-21T23:27:31.326Z,33.20
2023-03-21T23:29:57.927Z,28.30
2023-03-21T23:32:24.520Z,34.35
2023-03-21T23:34:51.096Z,33.35
2023-03-21T23:37:17.637Z,27.67
2023-03-21T23:39:45.264Z,26.80
2023-03-21T23:42:11.936Z,25.88
2023-03-21T23:44:38.518Z,26.35
2023-03-21T23:47:05.063Z,26.63
2023-03-21T23:49:33.749Z,31.85
2023-03-21T23:52:00.342Z,26.20
2023-03-21T23:54:26.847Z,24.25
2023-03-21T23:56:53.313Z,26.83
2023-03-21T23:59:19.831Z,25.73
